createdAt,value
2022-11-04T00:02:47.188Z,5.98
2022-11-04T00:06:09.602Z,5.98
2022-11-04T00:09:29.198Z,5.98
2022-11-04T00:12:37.968Z,6.01
2022-11-04T00:15:58.544Z,6.05
2022-11-04T00:19:01.167Z,6.11
2022-11-04T00:22:21.900Z,6.15
2022-11-04T00:25:42.834Z,6.22
2022-11-04T00:28:44.727Z,6.28
2022-11-04T00:32:05.291Z,6.32
2022-11-04T00:35:07.709Z,6.36
2022-11-04T00:38:09.837Z,6.39
2022-11-04T00:41:27.724Z,6.40
2022-11-04T00:44:30.108Z,6.38
2022-11-04T00:47:32.009Z,6.36
2022-11-04T00:50:33.737Z,6.38
2022-11-04T00:53:35.885Z,6.41
2022-11-04T00:56:38.523Z,6.44
2022-11-04T00:59:40.707Z,6.46
2022-11-04T01:02:42.497Z,6.48
2022-11-04T01:05:44.297Z,6.51
2022-11-04T01:08:46.759Z,6.52
2022-11-04T01:11:48.958Z,6.55
2022-11-04T01:14:50.627Z,6.57
2022-11-04T01:17:52.366Z,6.57
2022-11-04T01:20:54.206Z,6.56
2022-11-04T01:23:56.114Z,6.55
2022-11-04T01:26:57.803Z,6.55
2022-11-04T01:29:59.560Z,6.54
2022-11-04T01:33:01.369Z,6.53
2022-11-04T01:36:04.036Z,6.52
2022-11-04T01:39:05.935Z,6.51
2022-11-04T01:42:13.150Z,6.51
2022-11-04T01:45:17.366Z,6.53
2022-11-04T01:48:26.108Z,6.56
2022-11-04T01:51:30.260Z,6.60
2022-11-04T01:54:32.641Z,6.63
2022-11-04T01:57:37.479Z,6.66
2022-11-04T02:00:40.943Z,6.69
2022-11-04T02:03:55.131Z,6.75
2022-11-04T02:07:01.744Z,6.78
2022-11-04T02:10:04.218Z,6.81
2022-11-04T02:13:06.209Z,6.83
2022-11-04T02:16:24.075Z,6.86
2022-11-04T02:19:57.101Z,6.89
2022-11-04T02:23:40.062Z,6.92
2022-11-04T02:27:06.094Z,6.98
2022-11-04T02:30:09.948Z,7.03
2022-11-04T02:33:17.672Z,7.04
2022-11-04T02:36:32.738Z,7.03
2022-11-04T02:39:47.242Z,7.03
2022-11-04T02:43:01.728Z,7.04
2022-11-04T02:46:07.530Z,7.06
2022-11-04T02:49:15.669Z,7.10
2022-11-04T02:52:27.885Z,7.15
2022-11-04T02:55:31.294Z,7.20
2022-11-04T02:58:40.779Z,7.24
2022-11-04T03:01:44.389Z,7.29
2022-11-04T03:04:49.338Z,7.33
2022-11-04T03:07:52.880Z,7.38
2022-11-04T03:10:59.442Z,7.40
2022-11-04T03:14:26.691Z,7.42
2022-11-04T03:17:37.323Z,7.45
2022-11-04T03:20:41.037Z,7.47
2022-11-04T03:23:42.964Z,7.48
2022-11-04T03:27:07.229Z,7.50
2022-11-04T03:30:12.032Z,7.51
2022-11-04T03:33:34.346Z,7.53
2022-11-04T03:36:36.097Z,7.55
2022-11-04T03:39:37.854Z,7.56
2022-11-04T03:42:44.954Z,7.58
2022-11-04T03:45:47.297Z,7.59
2022-11-04T03:48:52.149Z,7.61
2022-11-04T03:51:54.200Z,7.63
2022-11-04T03:54:55.960Z,7.65
2022-11-04T03:58:09.054Z,7.67
2022-11-04T04:01:18.456Z,7.68
2022-11-04T04:04:29.928Z,7.69
2022-11-04T04:07:37.732Z,7.68
2022-11-04T04:10:51.431Z,7.67
2022-11-04T04:14:40.781Z,7.63
2022-11-04T04:17:52.072Z,7.63
2022-11-04T04:20:55.436Z,7.63
2022-11-04T04:24:18.482Z,7.63
2022-11-04T04:27:33.941Z,7.63
2022-11-04T04:30:36.187Z,7.61
2022-11-04T04:33:38.657Z,7.60
2022-11-04T04:37:08.440Z,7.58
2022-11-04T04:40:32.639Z,7.56
2022-11-04T04:43:53.357Z,7.55
2022-11-04T04:46:56.098Z,7.55
2022-11-04T04:49:59.803Z,7.52
2022-11-04T04:53:04.202Z,7.49
2022-11-04T04:56:06.037Z,7.45
2022-11-04T04:59:07.864Z,7.44
2022-11-04T05:02:09.612Z,7.42
2022-11-04T05:05:13.512Z,7.42
2022-11-04T05:08:15.166Z,7.41
2022-11-04T05:11:16.682Z,7.39
2022-11-04T05:14:18.476Z,7.38
2022-11-04T05:17:20.536Z,7.35
2022-11-04T05:20:22.796Z,7.30
2022-11-04T05:23:24.687Z,7.21
2022-11-04T05:26:26.404Z,6.90
2022-11-04T05:29:28.123Z,6.64
2022-11-04T05:32:31.480Z,6.58
2022-11-04T05:35:33.920Z,6.49
2022-11-04T05:38:35.868Z,6.35
2022-11-04T05:41:37.491Z,6.30
2022-11-04T05:44:39.241Z,6.29
2022-11-04T05:47:41.349Z,6.26
2022-11-04T05:50:43.080Z,6.25
2022-11-04T05:53:44.837Z,6.19
2022-11-04T05:56:46.883Z,6.20
2022-11-04T05:59:48.604Z,6.16
2022-11-04T06:02:50.461Z,6.10
2022-11-04T06:05:52.103Z,6.06
2022-11-04T06:08:53.876Z,6.11
2022-11-04T06:11:55.585Z,6.14
2022-11-04T06:14:57.140Z,6.16
2022-11-04T06:17:58.933Z,6.19
2022-11-04T06:21:29.986Z,6.19
2022-11-04T06:24:31.659Z,6.19
2022-11-04T06:27:33.165Z,6.15
2022-11-04T06:30:34.908Z,6.12
2022-11-04T06:33:37.154Z,6.15
2022-11-04T06:36:39.445Z,6.19
2022-11-04T06:39:41.090Z,6.33
2022-11-04T06:42:43.289Z,6.50
2022-11-04T06:45:45.130Z,6.63
2022-11-04T06:48:46.726Z,6.76
2022-11-04T06:51:48.603Z,6.89
2022-11-04T06:54:50.256Z,7.01
2022-11-04T06:57:52.064Z,7.13
2022-11-04T07:00:53.952Z,7.21
2022-11-04T07:03:58.916Z,7.31
2022-11-04T07:07:00.540Z,7.44
2022-11-04T07:10:02.191Z,7.61
2022-11-04T07:13:03.880Z,7.80
2022-11-04T07:16:06.612Z,8.04
2022-11-04T07:19:08.406Z,8.29
2022-11-04T07:22:10.396Z,8.58
2022-11-04T07:25:12.084Z,8.95
2022-11-04T07:28:13.975Z,9.44
2022-11-04T07:31:17.206Z,9.99
2022-11-04T07:34:18.894Z,10.49
2022-11-04T07:37:20.782Z,10.86
2022-11-04T07:40:22.555Z,11.33
2022-11-04T07:43:24.480Z,11.78
2022-11-04T07:46:26.579Z,12.15
2022-11-04T07:49:28.202Z,12.46
2022-11-04T07:52:29.789Z,12.82
2022-11-04T07:55:31.728Z,13.29
2022-11-04T07:58:34.108Z,13.79
2022-11-04T08:01:35.833Z,14.22
2022-11-04T08:04:37.973Z,14.42
2022-11-04T08:07:40.633Z,14.49
2022-11-04T08:10:42.206Z,14.47
2022-11-04T08:13:44.629Z,14.23
2022-11-04T08:16:46.267Z,14.39
2022-11-04T08:19:47.951Z,14.96
2022-11-04T08:22:49.655Z,15.79
2022-11-04T08:25:51.450Z,16.70
2022-11-04T08:28:53.184Z,17.61
2022-11-04T08:31:55.052Z,18.22
2022-11-04T08:34:56.634Z,18.23
2022-11-04T08:37:58.219Z,17.69
2022-11-04T08:41:00.821Z,17.73
2022-11-04T08:44:04.414Z,17.67
2022-11-04T08:47:06.286Z,17.55
2022-11-04T08:50:08.185Z,17.50
2022-11-04T08:53:10.373Z,17.37
2022-11-04T08:56:26.177Z,17.45
2022-11-04T08:59:28.376Z,18.54
2022-11-04T09:02:30.213Z,19.66
2022-11-04T09:05:32.430Z,20.55
2022-11-04T09:08:34.186Z,21.30
2022-11-04T09:11:39.542Z,21.95
2022-11-04T09:14:41.282Z,22.14
2022-11-04T09:17:44.432Z,21.96
2022-11-04T09:20:46.187Z,21.51
2022-11-04T09:23:48.009Z,21.00
2022-11-04T09:26:49.641Z,20.78
2022-11-04T09:29:51.272Z,20.81
2022-11-04T09:32:53.169Z,21.00
2022-11-04T09:35:57.896Z,21.31
2022-11-04T09:38:59.579Z,21.14
2022-11-04T09:42:18.081Z,20.59
2022-11-04T09:45:24.222Z,20.34
2022-11-04T09:48:30.003Z,19.73
2022-11-04T09:51:53.179Z,19.06
2022-11-04T09:55:12.252Z,18.74
2022-11-04T09:58:16.901Z,18.80
2022-11-04T10:01:18.658Z,19.28
2022-11-04T10:04:32.685Z,19.88
2022-11-04T10:07:41.633Z,20.47
2022-11-04T10:10:51.901Z,21.31
2022-11-04T10:14:13.870Z,21.90
2022-11-04T10:17:47.646Z,22.53
2022-11-04T10:21:11.634Z,23.15
2022-11-04T10:24:20.716Z,24.02
2022-11-04T10:27:26.226Z,24.60
2022-11-04T10:30:29.462Z,24.74
2022-11-04T10:33:52.584Z,25.22
2022-11-04T10:36:56.083Z,25.58
2022-11-04T10:40:09.640Z,25.63
2022-11-04T10:43:14.272Z,26.03
2022-11-04T10:46:28.205Z,26.39
2022-11-04T10:50:27.613Z,26.20
2022-11-04T10:53:28.911Z,25.36
2022-11-04T10:56:40.673Z,25.20
2022-11-04T11:00:02.801Z,25.10
2022-11-04T11:03:42.291Z,24.87
2022-11-04T11:06:50.015Z,24.79
2022-11-04T11:09:57.240Z,24.63
2022-11-04T11:13:02.376Z,24.35
2022-11-04T11:16:06.829Z,23.79
2022-11-04T11:19:15.511Z,23.71
2022-11-04T11:22:48.122Z,23.52
2022-11-04T11:25:50.905Z,23.05
2022-11-04T11:28:59.192Z,22.66
2022-11-04T11:32:01.053Z,22.27
2022-11-04T11:35:07.756Z,21.80
2022-11-04T11:38:27.988Z,21.19
2022-11-04T11:41:31.665Z,20.72
2022-11-04T11:44:48.339Z,20.38
2022-11-04T11:47:55.043Z,20.09
2022-11-04T11:50:59.956Z,19.82
2022-11-04T11:54:06.751Z,19.63
2022-11-04T11:57:35.836Z,19.45
2022-11-04T12:00:48.337Z,19.30
2022-11-04T12:10:51.722Z,18.84
2022-11-04T12:13:58.298Z,18.78
2022-11-04T12:17:30.016Z,18.71
2022-11-04T12:20:50.400Z,18.65
2022-11-04T12:23:59.336Z,18.58
2022-11-04T12:27:39.862Z,18.53
2022-11-04T12:30:54.085Z,18.43
2022-11-04T12:34:25.209Z,18.24
2022-11-04T12:37:32.915Z,18.13
2022-11-04T12:41:04.908Z,17.94
2022-11-04T12:44:30.232Z,17.53
2022-11-04T12:47:41.601Z,17.20
2022-11-04T12:50:58.907Z,16.99
2022-11-04T12:54:35.914Z,16.84
2022-11-04T12:57:43.632Z,16.69
2022-11-04T13:00:48.725Z,16.53
2022-11-04T13:03:55.362Z,16.44
2022-11-04T13:07:19.672Z,16.38
2022-11-04T13:10:50.409Z,16.32
2022-11-04T13:14:23.943Z,16.33
2022-11-04T13:17:39.507Z,16.35
2022-11-04T13:20:46.186Z,16.25
2022-11-04T13:24:04.514Z,16.16
2022-11-04T13:27:16.593Z,16.06
2022-11-04T13:30:22.999Z,15.99
2022-11-04T13:33:35.202Z,15.94
2022-11-04T13:36:41.444Z,15.82
2022-11-04T13:39:54.950Z,15.68
2022-11-04T13:43:37.196Z,15.56
2022-11-04T13:46:39.084Z,15.43
2022-11-04T13:49:40.812Z,15.39
2022-11-04T13:52:52.640Z,15.34
2022-11-04T13:56:01.304Z,15.31
2022-11-04T13:59:17.046Z,15.28
2022-11-04T14:02:19.235Z,15.22
2022-11-04T14:05:31.385Z,15.15
2022-11-04T14:08:33.413Z,15.09
2022-11-04T14:12:19.857Z,15.00
2022-11-04T14:16:00.052Z,14.92
2022-11-04T14:19:44.371Z,14.85
2022-11-04T14:22:54.469Z,14.77
2022-11-04T14:26:04.303Z,14.70
2022-11-04T14:29:18.299Z,14.63
2022-11-04T14:32:27.401Z,14.52
2022-11-04T14:35:30.583Z,14.41
2022-11-04T14:38:34.108Z,14.35
2022-11-04T14:42:01.943Z,14.27
2022-11-04T14:45:08.478Z,14.17
2022-11-04T14:48:18.612Z,14.06
2022-11-04T14:51:31.692Z,13.97
2022-11-04T14:54:34.961Z,13.88
2022-11-04T14:57:51.372Z,13.82
2022-11-04T15:00:56.207Z,13.74
2022-11-04T15:04:12.160Z,13.70
2022-11-04T15:07:36.459Z,13.64
2022-11-04T15:10:38.019Z,13.56
2022-11-04T15:13:48.636Z,13.50
2022-11-04T15:16:53.576Z,13.42
2022-11-04T15:19:57.530Z,13.39
2022-11-04T15:23:01.958Z,13.36
2022-11-04T15:26:04.797Z,13.33
2022-11-04T15:29:10.045Z,13.30
2022-11-04T15:32:18.167Z,13.26
2022-11-04T15:35:20.089Z,13.19
2022-11-04T15:38:24.531Z,13.16
2022-11-04T15:41:46.557Z,13.11
2022-11-04T15:44:53.740Z,13.06
2022-11-04T15:48:23.445Z,12.97
2022-11-04T15:51:25.877Z,12.91
2022-11-04T15:54:39.806Z,12.87
2022-11-04T15:57:42.223Z,12.82
2022-11-04T16:00:52.903Z,12.72
2022-11-04T16:03:57.272Z,12.60
2022-11-04T16:07:04.781Z,12.53
2022-11-04T16:10:32.620Z,12.44
2022-11-04T16:13:34.286Z,12.39
2022-11-04T16:16:36.143Z,12.36
2022-11-04T16:19:38.081Z,12.33
2022-11-04T16:22:40.915Z,12.27
2022-11-04T16:25:42.616Z,12.22
2022-11-04T16:28:44.363Z,12.16
2022-11-04T16:31:46.085Z,12.09
2022-11-04T16:34:53.694Z,12.02
2022-11-04T16:37:56.333Z,11.95
2022-11-04T16:40:58.099Z,11.88
2022-11-04T16:43:59.932Z,11.83
2022-11-04T16:47:02.255Z,11.78
2022-11-04T16:50:14.611Z,11.74
2022-11-04T16:53:16.921Z,11.65
2022-11-04T16:56:21.431Z,11.55
2022-11-04T16:59:23.618Z,11.43
2022-11-04T17:02:32.025Z,11.21
2022-11-04T17:05:33.863Z,11.17
2022-11-04T17:08:35.852Z,11.22
2022-11-04T17:11:37.507Z,11.08
2022-11-04T17:14:39.194Z,10.91
2022-11-04T17:17:41.378Z,10.82
2022-11-04T17:20:50.175Z,10.80
2022-11-04T17:23:53.016Z,10.82
2022-11-04T17:26:54.776Z,10.69
2022-11-04T17:29:56.524Z,10.56
2022-11-04T17:32:58.341Z,10.44
2022-11-04T17:36:04.739Z,10.35
2022-11-04T17:39:09.118Z,10.29
2022-11-04T17:42:29.591Z,10.25
2022-11-04T17:45:32.072Z,10.24
2022-11-04T17:48:33.774Z,10.30
2022-11-04T17:51:36.447Z,10.42
2022-11-04T17:54:38.101Z,10.46
2022-11-04T17:57:39.753Z,10.33
2022-11-04T18:00:41.570Z,10.22
2022-11-04T18:03:43.694Z,10.19
2022-11-04T18:06:45.477Z,10.16
2022-11-04T18:09:47.216Z,10.26
2022-11-04T18:12:48.928Z,10.30
2022-11-04T18:15:50.602Z,10.12
2022-11-04T18:18:52.330Z,10.01
2022-11-04T18:21:54.018Z,9.93
2022-11-04T18:24:55.842Z,9.85
2022-11-04T18:27:57.769Z,9.79
2022-11-04T18:30:59.386Z,9.69
2022-11-04T18:34:03.006Z,9.69
2022-11-04T18:37:04.901Z,9.71
2022-11-04T18:40:07.515Z,9.70
2022-11-04T18:43:09.631Z,9.70
2022-11-04T18:46:14.528Z,9.66
2022-11-04T18:49:17.316Z,9.63
2022-11-04T18:52:19.051Z,9.59
2022-11-04T18:55:20.627Z,9.54
2022-11-04T18:58:22.631Z,9.51
2022-11-04T19:01:29.732Z,9.49
2022-11-04T19:04:32.011Z,9.45
2022-11-04T19:07:33.729Z,9.38
2022-11-04T19:10:59.776Z,9.25
2022-11-04T19:14:09.504Z,9.17
2022-11-04T19:17:11.860Z,9.09
2022-11-04T19:20:14.611Z,9.07
2022-11-04T19:23:16.401Z,9.11
2022-11-04T19:26:20.378Z,9.21
2022-11-04T19:29:22.186Z,9.30
2022-11-04T19:32:24.044Z,9.27
2022-11-04T19:35:25.741Z,9.24
2022-11-04T19:38:27.904Z,9.24
2022-11-04T19:41:48.285Z,9.18
2022-11-04T19:44:50.091Z,9.10
2022-11-04T19:47:51.752Z,9.09
2022-11-04T19:50:53.595Z,9.13
2022-11-04T19:53:55.483Z,9.12
2022-11-04T19:56:58.090Z,9.08
2022-11-04T20:00:00.324Z,9.04
2022-11-04T20:03:02.076Z,9.01
2022-11-04T20:06:04.085Z,9.00
2022-11-04T20:09:07.586Z,8.95
2022-11-04T20:12:27.780Z,8.95
2022-11-04T20:15:29.819Z,8.91
2022-11-04T20:18:31.614Z,8.85
2022-11-04T20:21:35.381Z,8.87
2022-11-04T20:24:37.068Z,8.80
2022-11-04T20:27:38.941Z,8.71
2022-11-04T20:30:42.080Z,8.71
2022-11-04T20:33:44.191Z,8.65
2022-11-04T20:36:46.053Z,8.60
2022-11-04T20:39:47.833Z,8.57
2022-11-04T20:42:49.648Z,8.52
2022-11-04T20:45:52.421Z,8.57
2022-11-04T20:48:55.420Z,8.56
2022-11-04T20:51:57.103Z,8.55
2022-11-04T20:54:58.729Z,8.57
2022-11-04T20:58:00.393Z,8.59
2022-11-04T21:01:03.359Z,8.54
2022-11-04T21:04:07.827Z,8.55
2022-11-04T21:07:09.859Z,8.59
2022-11-04T21:10:11.559Z,8.59
2022-11-04T21:13:13.241Z,8.61
2022-11-04T21:16:16.869Z,8.63
2022-11-04T21:19:20.342Z,8.61
2022-11-04T21:22:22.271Z,8.54
2022-11-04T21:25:24.103Z,8.53
2022-11-04T21:28:26.317Z,8.52
2022-11-04T21:31:30.009Z,8.53
2022-11-04T21:34:31.714Z,8.58
2022-11-04T21:37:36.866Z,8.58
2022-11-04T21:40:38.854Z,8.52
2022-11-04T21:43:41.266Z,8.52
2022-11-04T21:46:42.882Z,8.47
2022-11-04T21:49:44.524Z,8.43
2022-11-04T21:52:46.625Z,8.44
2022-11-04T21:55:48.252Z,8.40
2022-11-04T21:58:51.774Z,8.40
2022-11-04T22:01:53.537Z,8.45
2022-11-04T22:04:55.443Z,8.42
2022-11-04T22:08:15.866Z,8.38
2022-11-04T22:11:20.287Z,8.43
2022-11-04T22:14:22.141Z,8.43
2022-11-04T22:17:23.835Z,8.34
2022-11-04T22:20:25.516Z,8.37
2022-11-04T22:23:27.120Z,8.45
2022-11-04T22:26:31.444Z,8.51
2022-11-04T22:29:34.334Z,8.52
2022-11-04T22:32:36.023Z,8.52
2022-11-04T22:35:37.706Z,8.55
2022-11-04T22:38:41.742Z,8.72
2022-11-04T22:41:43.953Z,8.79
2022-11-04T22:44:45.742Z,8.86
2022-11-04T22:47:47.744Z,8.91
2022-11-04T22:50:58.328Z,8.95
2022-11-04T22:54:07.678Z,8.98
2022-11-04T22:57:10.262Z,9.01
2022-11-04T23:00:12.514Z,9.04
2022-11-04T23:03:14.684Z,9.07
2022-11-04T23:06:16.915Z,9.09
2022-11-04T23:09:18.770Z,9.10
2022-11-04T23:12:39.123Z,9.13
2022-11-04T23:15:59.970Z,9.12
2022-11-04T23:19:01.751Z,9.11
2022-11-04T23:22:22.415Z,9.12
2022-11-04T23:25:24.741Z,9.10
2022-11-04T23:28:45.155Z,9.07
2022-11-04T23:31:46.954Z,9.04
2022-11-04T23:35:07.650Z,9.03
2022-11-04T23:38:09.403Z,9.01
2022-11-04T23:41:29.740Z,9.01
2022-11-04T23:44:50.208Z,9.01
2022-11-04T23:48:14.084Z,9.01
2022-11-04T23:51:34.534Z,9.02
2022-11-04T23:54:55.257Z,9.00
2022-11-04T23:58:16.021Z,8.98
